createdAt,value
2018-09-25T00:01:07.142Z,0
2018-09-25T00:02:16.572Z,0
2018-09-25T00:03:26.262Z,0
2018-09-25T00:04:36.204Z,0
2018-09-25T00:05:46.132Z,0
2018-09-25T00:06:55.825Z,0
2018-09-25T00:08:05.504Z,0
2018-09-25T00:09:15.454Z,0
2018-09-25T00:10:25.892Z,0
2018-09-25T00:11:35.867Z,0
2018-09-25T00:12:45.557Z,0
2018-09-25T00:13:55.235Z,0
2018-09-25T00:15:05.177Z,0
2018-09-25T00:16:15.142Z,0
2018-09-25T00:17:25.075Z,0
2018-09-25T00:18:35.017Z,0
2018-09-25T00:19:44.438Z,0
2018-09-25T00:20:54.411Z,0
2018-09-25T00:22:04.579Z,0
2018-09-25T00:23:14.526Z,0
2018-09-25T00:24:24.229Z,0
2018-09-25T00:25:34.171Z,0
2018-09-25T00:26:44.126Z,0
2018-09-25T00:27:54.071Z,0
2018-09-25T00:29:03.772Z,0
2018-09-25T00:30:13.462Z,0
2018-09-25T00:31:23.413Z,0
2018-09-25T00:32:33.372Z,0
2018-09-25T00:33:43.058Z,0
2018-09-25T00:34:53.015Z,0
2018-09-25T00:36:02.958Z,0
2018-09-25T00:37:12.899Z,0
2018-09-25T00:38:22.834Z,0
2018-09-25T00:39:32.777Z,0
2018-09-25T00:40:42.732Z,0
2018-09-25T00:41:52.670Z,0
2018-09-25T00:43:02.609Z,0
2018-09-25T00:44:12.039Z,0
2018-09-25T00:45:21.997Z,0
2018-09-25T00:46:31.978Z,0
2018-09-25T00:47:41.924Z,0
2018-09-25T00:48:51.875Z,0
2018-09-25T00:50:01.564Z,0
2018-09-25T00:51:11.525Z,0
2018-09-25T00:52:21.216Z,0
2018-09-25T00:53:31.166Z,0
2018-09-25T00:54:41.113Z,0
2018-09-25T00:55:51.059Z,0
2018-09-25T00:57:00.791Z,0
2018-09-25T00:58:10.744Z,0
2018-09-25T00:59:20.425Z,0
2018-09-25T01:00:30.111Z,0
2018-09-25T01:01:40.057Z,0
2018-09-25T01:02:50.011Z,0
2018-09-25T01:03:59.955Z,0
2018-09-25T01:05:09.893Z,0
2018-09-25T01:06:19.832Z,0
2018-09-25T01:07:29.508Z,0
2018-09-25T01:08:39.450Z,0
2018-09-25T01:09:49.131Z,0
2018-09-25T01:10:59.102Z,0
2018-09-25T01:12:09.041Z,0
2018-09-25T01:13:18.990Z,0
2018-09-25T01:14:28.695Z,0
2018-09-25T01:15:38.629Z,0
2018-09-25T01:16:48.574Z,0
2018-09-25T01:17:58.517Z,0
2018-09-25T01:19:08.008Z,0
2018-09-25T01:20:18.014Z,0
2018-09-25T01:21:27.955Z,0
2018-09-25T01:22:37.920Z,0
2018-09-25T01:23:47.879Z,0
2018-09-25T01:24:57.831Z,0
2018-09-25T01:26:07.782Z,0
2018-09-25T01:27:17.721Z,0
2018-09-25T01:28:27.653Z,0
2018-09-25T01:29:37.592Z,0
2018-09-25T01:30:47.277Z,0
2018-09-25T01:31:57.213Z,0
2018-09-25T01:33:07.151Z,0
2018-09-25T01:34:16.826Z,0
2018-09-25T01:35:26.754Z,0
2018-09-25T01:36:36.432Z,0
2018-09-25T01:37:46.369Z,0
2018-09-25T01:38:56.321Z,0
2018-09-25T01:40:06.256Z,0
2018-09-25T01:41:16.205Z,0
2018-09-25T01:42:25.885Z,0
2018-09-25T01:43:35.829Z,0
2018-09-25T01:44:45.765Z,0
2018-09-25T01:45:55.719Z,0
2018-09-25T01:47:05.669Z,0
2018-09-25T01:48:15.347Z,0
2018-09-25T01:49:25.292Z,0
2018-09-25T01:50:35.237Z,0
2018-09-25T01:51:45.175Z,0
2018-09-25T01:52:55.128Z,0
2018-09-25T01:54:05.084Z,0
2018-09-25T01:55:15.024Z,0
2018-09-25T01:56:24.697Z,0
2018-09-25T01:57:34.643Z,0
2018-09-25T01:58:44.578Z,0
2018-09-25T01:59:54.521Z,0
2018-09-25T02:01:04.501Z,0
2018-09-25T02:02:14.183Z,0
2018-09-25T02:03:24.107Z,0
2018-09-25T02:04:33.789Z,0
2018-09-25T02:05:43.255Z,0
2018-09-25T02:06:52.935Z,0
2018-09-25T02:08:02.894Z,0
2018-09-25T02:09:12.835Z,0
2018-09-25T02:10:22.785Z,0
2018-09-25T02:11:32.734Z,0
2018-09-25T02:12:42.692Z,0
2018-09-25T02:13:52.637Z,0
2018-09-25T02:15:02.047Z,0
2018-09-25T02:16:12.005Z,0
2018-09-25T02:17:21.423Z,0
2018-09-25T02:18:31.355Z,0
2018-09-25T02:19:41.044Z,0
2018-09-25T02:20:50.729Z,0
2018-09-25T02:22:00.670Z,0
2018-09-25T02:23:10.620Z,0
2018-09-25T02:24:20.600Z,0
2018-09-25T02:25:30.531Z,0
2018-09-25T02:26:40.506Z,0
2018-09-25T02:27:49.937Z,0
2018-09-25T02:28:59.609Z,0
2018-09-25T02:30:09.555Z,0
2018-09-25T02:31:19.251Z,0
2018-09-25T02:32:28.681Z,0
2018-09-25T02:33:37.856Z,0
2018-09-25T02:34:47.810Z,0
2018-09-25T02:35:57.486Z,0
2018-09-25T02:37:07.430Z,0
2018-09-25T02:38:17.114Z,0
2018-09-25T02:39:27.051Z,0
2018-09-25T02:40:37.010Z,0
2018-09-25T02:41:46.957Z,0
2018-09-25T02:42:56.919Z,0
2018-09-25T02:44:06.885Z,0
2018-09-25T02:45:16.850Z,0
2018-09-25T02:46:26.802Z,0
2018-09-25T02:47:36.759Z,0
2018-09-25T02:48:46.449Z,0
2018-09-25T02:49:56.171Z,0
2018-09-25T02:51:05.863Z,0
2018-09-25T02:52:15.570Z,0
2018-09-25T02:53:25.514Z,0
2018-09-25T02:54:35.464Z,0
2018-09-25T02:55:45.157Z,0
2018-09-25T02:56:54.851Z,0
2018-09-25T02:58:04.826Z,0
2018-09-25T02:59:14.771Z,0
2018-09-25T03:00:24.465Z,0
2018-09-25T03:01:34.411Z,0
2018-09-25T03:02:44.365Z,0
2018-09-25T03:03:54.071Z,0
2018-09-25T03:05:04.025Z,0
2018-09-25T03:06:13.978Z,0
2018-09-25T03:07:23.916Z,0
2018-09-25T03:08:33.618Z,0
2018-09-25T03:09:43.567Z,0
2018-09-25T03:10:53.516Z,0
2018-09-25T03:12:03.472Z,0
2018-09-25T03:13:13.395Z,0
2018-09-25T03:14:23.370Z,0
2018-09-25T03:15:33.328Z,0
2018-09-25T03:16:43.009Z,0
2018-09-25T03:17:52.943Z,0
2018-09-25T03:19:02.899Z,0
2018-09-25T03:20:12.590Z,0
2018-09-25T03:21:22.531Z,0
2018-09-25T03:22:32.217Z,0
2018-09-25T03:23:42.351Z,0
2018-09-25T03:24:52.327Z,0
2018-09-25T03:26:02.280Z,0
2018-09-25T03:27:12.221Z,0
2018-09-25T03:28:22.211Z,0
2018-09-25T03:29:32.156Z,0
2018-09-25T03:30:42.100Z,0
2018-09-25T03:31:52.080Z,0
2018-09-25T03:33:02.016Z,0
2018-09-25T03:34:11.953Z,0
2018-09-25T03:35:21.638Z,0
2018-09-25T03:36:31.583Z,0
2018-09-25T03:37:41.531Z,0
2018-09-25T03:38:51.222Z,0
2018-09-25T03:40:00.640Z,0
2018-09-25T03:41:10.601Z,0
2018-09-25T03:42:20.543Z,0
2018-09-25T03:43:30.498Z,0
2018-09-25T03:44:40.191Z,0
2018-09-25T03:45:49.872Z,0
2018-09-25T03:46:59.819Z,0
2018-09-25T03:48:09.759Z,0
2018-09-25T03:49:19.186Z,0
2018-09-25T03:50:29.125Z,0
2018-09-25T03:51:39.067Z,0
2018-09-25T03:52:48.759Z,0
2018-09-25T03:53:58.709Z,0
2018-09-25T03:55:08.383Z,0
2018-09-25T03:56:18.073Z,0
2018-09-25T03:57:28.012Z,0
2018-09-25T03:58:37.699Z,0
2018-09-25T03:59:48.142Z,0
2018-09-25T04:00:58.143Z,0
2018-09-25T04:02:07.574Z,0
2018-09-25T04:03:17.526Z,0
2018-09-25T04:04:27.482Z,0
2018-09-25T04:05:37.436Z,0
2018-09-25T04:06:47.413Z,0
2018-09-25T04:07:57.102Z,0
2018-09-25T04:09:06.813Z,0
2018-09-25T04:10:16.778Z,0
2018-09-25T04:11:26.739Z,0
2018-09-25T04:12:36.665Z,0
2018-09-25T04:13:46.407Z,0
2018-09-25T04:14:56.355Z,0
2018-09-25T04:16:06.302Z,0
2018-09-25T04:17:16.243Z,0
2018-09-25T04:18:25.936Z,0
2018-09-25T04:19:35.887Z,0
2018-09-25T04:20:45.837Z,0
2018-09-25T04:21:55.529Z,0
2018-09-25T04:23:05.464Z,0
2018-09-25T04:24:15.405Z,0
2018-09-25T04:25:25.359Z,0
2018-09-25T04:26:35.315Z,0
2018-09-25T04:27:45.000Z,0
2018-09-25T04:28:54.996Z,0
2018-09-25T04:30:04.679Z,0
2018-09-25T04:31:14.360Z,0
2018-09-25T04:32:24.051Z,0
2018-09-25T04:33:34.009Z,0
2018-09-25T04:34:43.700Z,0
2018-09-25T04:35:53.642Z,0
2018-09-25T04:37:03.703Z,0
2018-09-25T04:38:13.655Z,0
2018-09-25T04:39:23.355Z,0
2018-09-25T04:40:33.300Z,0
2018-09-25T04:41:43.240Z,0
2018-09-25T04:42:52.936Z,0
2018-09-25T04:44:02.883Z,0
2018-09-25T04:45:12.826Z,0
2018-09-25T04:46:22.771Z,0
2018-09-25T04:47:32.465Z,5
2018-09-25T04:48:42.405Z,5
2018-09-25T04:49:52.349Z,5
2018-09-25T04:51:02.039Z,5
2018-09-25T04:52:11.748Z,5
2018-09-25T04:53:21.708Z,10
2018-09-25T04:54:31.861Z,10
2018-09-25T04:55:41.800Z,10
2018-09-25T04:56:51.746Z,15
2018-09-25T04:58:01.713Z,15
2018-09-25T04:59:11.674Z,15
2018-09-25T05:00:21.616Z,20
2018-09-25T05:01:31.638Z,20
2018-09-25T05:02:41.578Z,25
2018-09-25T05:03:51.526Z,25
2018-09-25T05:05:01.465Z,30
2018-09-25T05:06:11.147Z,30
2018-09-25T05:07:20.835Z,35
2018-09-25T05:08:30.805Z,35
2018-09-25T05:09:40.482Z,40
2018-09-25T05:10:50.426Z,40
2018-09-25T05:12:00.435Z,45
2018-09-25T05:13:10.399Z,45
2018-09-25T05:14:20.356Z,50
2018-09-25T05:15:30.047Z,55
2018-09-25T05:16:39.724Z,55
2018-09-25T05:17:49.417Z,60
2018-09-25T05:18:59.376Z,60
2018-09-25T05:20:09.325Z,65
2018-09-25T05:21:19.286Z,70
2018-09-25T05:22:29.223Z,70
2018-09-25T05:23:39.458Z,75
2018-09-25T05:24:49.378Z,75
2018-09-25T05:25:59.342Z,80
2018-09-25T05:27:09.036Z,85
2018-09-25T05:28:18.716Z,85
2018-09-25T05:29:28.661Z,90
2018-09-25T05:30:38.352Z,90
2018-09-25T05:31:48.304Z,95
2018-09-25T05:32:58.257Z,95
2018-09-25T05:34:07.941Z,100
2018-09-25T05:35:17.883Z,105
2018-09-25T05:36:27.580Z,105
2018-09-25T05:37:37.535Z,110
2018-09-25T05:38:47.476Z,110
2018-09-25T05:39:57.416Z,115
2018-09-25T05:41:07.824Z,115
2018-09-25T05:42:17.514Z,120
2018-09-25T05:43:27.452Z,120
2018-09-25T05:44:37.415Z,125
2018-09-25T05:45:47.106Z,125
2018-09-25T05:46:56.788Z,130
2018-09-25T05:48:06.686Z,130
2018-09-25T05:49:15.854Z,135
2018-09-25T05:50:25.304Z,135
2018-09-25T05:51:35.002Z,135
2018-09-25T05:52:44.965Z,140
2018-09-25T05:53:54.898Z,140
2018-09-25T05:55:04.594Z,145
2018-09-25T05:56:14.299Z,145
2018-09-25T05:57:24.270Z,150
2018-09-25T05:58:34.235Z,150
2018-09-25T05:59:44.192Z,150
2018-09-25T06:00:54.218Z,155
2018-09-25T06:02:04.266Z,155
2018-09-25T06:03:14.261Z,160
2018-09-25T06:04:24.202Z,160
2018-09-25T06:05:34.174Z,160
2018-09-25T06:06:44.133Z,165
2018-09-25T06:07:54.077Z,165
2018-09-25T06:09:04.030Z,165
2018-09-25T06:10:13.981Z,170
2018-09-25T06:11:23.925Z,170
2018-09-25T06:12:33.876Z,175
2018-09-25T06:13:43.893Z,175
2018-09-25T06:14:53.877Z,175
2018-09-25T06:16:03.856Z,180
2018-09-25T06:17:13.808Z,180
2018-09-25T06:18:23.524Z,180
2018-09-25T06:19:33.481Z,185
2018-09-25T06:20:43.174Z,185
2018-09-25T06:21:53.125Z,185
2018-09-25T06:23:03.427Z,190
2018-09-25T06:24:13.452Z,190
2018-09-25T06:25:23.415Z,190
2018-09-25T06:26:33.396Z,190
2018-09-25T06:27:43.112Z,190
2018-09-25T06:28:53.653Z,190
2018-09-25T06:30:03.615Z,190
2018-09-25T06:31:13.597Z,195
2018-09-25T06:32:23.292Z,195
2018-09-25T06:33:33.240Z,195
2018-09-25T06:34:43.594Z,195
2018-09-25T06:35:53.551Z,200
2018-09-25T06:37:03.507Z,200
2018-09-25T06:38:13.210Z,200
2018-09-25T06:39:23.169Z,200
2018-09-25T06:40:33.140Z,205
2018-09-25T06:41:42.859Z,205
2018-09-25T06:42:52.806Z,205
2018-09-25T06:44:02.807Z,210
2018-09-25T06:45:12.514Z,210
2018-09-25T06:46:22.689Z,210
2018-09-25T06:47:32.831Z,210
2018-09-25T06:48:42.799Z,215
2018-09-25T06:49:52.222Z,215
2018-09-25T06:51:01.911Z,215
2018-09-25T06:52:11.597Z,220
2018-09-25T06:53:21.549Z,220
2018-09-25T06:54:31.512Z,220
2018-09-25T06:55:41.469Z,225
2018-09-25T06:56:51.425Z,225
2018-09-25T06:58:01.381Z,230
2018-09-25T06:59:11.349Z,230
2018-09-25T07:00:21.047Z,230
2018-09-25T07:01:31.011Z,235
2018-09-25T07:02:41.022Z,235
2018-09-25T07:03:50.972Z,235
2018-09-25T07:05:00.914Z,235
2018-09-25T07:06:10.878Z,235
2018-09-25T07:07:20.828Z,240
2018-09-25T07:08:30.527Z,230
2018-09-25T07:09:40.649Z,245
2018-09-25T07:10:50.910Z,240
2018-09-25T07:12:00.621Z,245
2018-09-25T07:13:10.293Z,245
2018-09-25T07:14:19.978Z,250
2018-09-25T07:15:29.927Z,250
2018-09-25T07:16:39.883Z,250
2018-09-25T07:17:50.491Z,255
2018-09-25T07:19:00.139Z,255
2018-09-25T07:20:09.604Z,260
2018-09-25T07:21:19.564Z,260
2018-09-25T07:22:29.517Z,255
2018-09-25T07:23:39.218Z,260
2018-09-25T07:24:49.895Z,255
2018-09-25T07:25:59.590Z,255
2018-09-25T07:27:09.536Z,260
2018-09-25T07:28:19.213Z,260
2018-09-25T07:29:29.236Z,260
2018-09-25T07:30:39.188Z,260
2018-09-25T07:31:49.153Z,260
2018-09-25T07:32:59.107Z,265
2018-09-25T07:34:08.797Z,265
2018-09-25T07:35:18.750Z,265
2018-09-25T07:36:28.690Z,265
2018-09-25T07:37:38.628Z,265
2018-09-25T07:38:48.072Z,270
2018-09-25T07:39:57.869Z,270
2018-09-25T07:41:07.570Z,270
2018-09-25T07:42:17.277Z,270
2018-09-25T07:43:26.965Z,270
2018-09-25T07:44:36.418Z,270
2018-09-25T07:45:45.871Z,270
2018-09-25T07:46:55.825Z,270
2018-09-25T07:48:05.900Z,270
2018-09-25T07:49:15.935Z,270
2018-09-25T07:50:25.638Z,270
2018-09-25T07:51:35.589Z,275
2018-09-25T07:52:45.533Z,275
2018-09-25T07:53:55.469Z,275
2018-09-25T07:55:05.159Z,275
2018-09-25T07:56:14.894Z,280
2018-09-25T07:57:24.856Z,280
2018-09-25T07:58:34.809Z,280
2018-09-25T07:59:44.772Z,280
2018-09-25T08:00:54.716Z,320
2018-09-25T08:02:04.654Z,490
2018-09-25T08:03:15.117Z,585
2018-09-25T08:04:25.151Z,585
2018-09-25T08:05:35.103Z,610
2018-09-25T08:06:45.047Z,620
2018-09-25T08:07:54.779Z,635
2018-09-25T08:09:04.723Z,650
2018-09-25T08:10:14.741Z,665
2018-09-25T08:11:24.744Z,685
2018-09-25T08:12:34.437Z,690
2018-09-25T08:13:44.398Z,730
2018-09-25T08:14:54.100Z,735
2018-09-25T08:16:03.811Z,735
2018-09-25T08:17:13.755Z,750
2018-09-25T08:18:23.716Z,770
2018-09-25T08:19:33.683Z,765
2018-09-25T08:20:43.397Z,785
2018-09-25T08:21:53.098Z,805
2018-09-25T08:23:03.072Z,820
2018-09-25T08:24:13.040Z,845
2018-09-25T08:25:22.749Z,850
2018-09-25T08:26:32.492Z,855
2018-09-25T08:27:42.201Z,890
2018-09-25T08:28:52.128Z,900
2018-09-25T08:30:01.868Z,920
2018-09-25T08:31:11.975Z,925
2018-09-25T08:32:21.442Z,920
2018-09-25T08:33:31.435Z,920
2018-09-25T08:34:41.393Z,980
2018-09-25T08:35:51.384Z,960
2018-09-25T08:37:01.351Z,1010
2018-09-25T08:38:11.072Z,1010
2018-09-25T08:39:21.367Z,1045
2018-09-25T08:40:31.421Z,1050
2018-09-25T08:41:41.117Z,1090
2018-09-25T08:42:50.805Z,1080
2018-09-25T08:44:00.769Z,1025
2018-09-25T08:45:10.475Z,1060
2018-09-25T08:46:20.427Z,1100
2018-09-25T08:47:30.392Z,1125
2018-09-25T08:48:40.349Z,1160
2018-09-25T08:49:50.311Z,1120
2018-09-25T08:51:00.263Z,1150
2018-09-25T08:52:10.238Z,1220
2018-09-25T08:53:20.202Z,1175
2018-09-25T08:54:30.189Z,1180
2018-09-25T08:55:40.173Z,1270
2018-09-25T08:56:50.145Z,1315
2018-09-25T08:58:00.122Z,1295
2018-09-25T08:59:10.086Z,1265
2018-09-25T09:00:20.045Z,1230
2018-09-25T09:01:29.837Z,1305
2018-09-25T09:02:39.549Z,1295
2018-09-25T09:03:49.532Z,1305
2018-09-25T09:04:59.294Z,1365
2018-09-25T09:06:08.999Z,1335
2018-09-25T09:07:19.420Z,1450
2018-09-25T09:08:29.909Z,1455
2018-09-25T09:09:39.766Z,1355
2018-09-25T09:10:49.557Z,1440
2018-09-25T09:11:59.363Z,1470
2018-09-25T09:13:09.348Z,1435
2018-09-25T09:14:19.379Z,1415
2018-09-25T09:15:29.336Z,1455
2018-09-25T09:16:39.305Z,1500
2018-09-25T09:17:49.440Z,1540
2018-09-25T09:18:59.399Z,1595
2018-09-25T09:20:09.945Z,1540
2018-09-25T09:21:20.001Z,1570
2018-09-25T09:22:30.025Z,1645
2018-09-25T09:23:39.463Z,1715
2018-09-25T09:24:49.188Z,1775
2018-09-25T09:25:58.643Z,610
2018-09-25T09:27:08.659Z,1805
2018-09-25T09:28:18.670Z,600
2018-09-25T09:29:28.658Z,630
2018-09-25T09:30:38.351Z,915
2018-09-25T09:31:48.307Z,1195
2018-09-25T09:32:58.008Z,1840
2018-09-25T09:34:07.213Z,935
2018-09-25T09:35:16.922Z,620
2018-09-25T09:36:26.627Z,1695
2018-09-25T09:37:36.573Z,2050
2018-09-25T09:38:46.541Z,2030
2018-09-25T09:39:56.507Z,600
2018-09-25T09:41:06.973Z,2005
2018-09-25T09:42:16.862Z,2130
2018-09-25T09:43:26.815Z,1680
2018-09-25T09:44:36.533Z,790
2018-09-25T09:45:46.495Z,1105
2018-09-25T09:46:56.198Z,1120
2018-09-25T09:48:06.166Z,650
2018-09-25T09:49:16.132Z,715
2018-09-25T09:50:26.279Z,1710
2018-09-25T09:51:36.312Z,500
2018-09-25T09:52:46.266Z,960
2018-09-25T09:53:55.698Z,2125
2018-09-25T09:55:05.687Z,1740
2018-09-25T09:56:15.730Z,2095
2018-09-25T09:57:25.448Z,2100
2018-09-25T09:58:35.165Z,2130
2018-09-25T09:59:45.119Z,2205
2018-09-25T10:00:54.851Z,2240
2018-09-25T10:02:04.817Z,1950
2018-09-25T10:03:14.544Z,2280
2018-09-25T10:04:23.995Z,2215
2018-09-25T10:05:33.978Z,2355
2018-09-25T10:06:43.858Z,2260
2018-09-25T10:07:53.851Z,2095
2018-09-25T10:09:03.575Z,650
2018-09-25T10:10:13.276Z,1135
2018-09-25T10:11:23.256Z,2425
2018-09-25T10:12:33.518Z,2375
2018-09-25T10:13:43.486Z,2365
2018-09-25T10:14:53.456Z,2300
2018-09-25T10:16:03.417Z,1590
2018-09-25T10:17:13.122Z,2345
2018-09-25T10:18:23.089Z,825
2018-09-25T10:19:33.064Z,850
2018-09-25T10:20:43.031Z,610
2018-09-25T10:21:52.740Z,480
2018-09-25T10:23:02.701Z,470
2018-09-25T10:24:12.682Z,480
2018-09-25T10:25:22.663Z,2300
2018-09-25T10:26:32.628Z,2220
2018-09-25T10:27:42.599Z,2260
2018-09-25T10:28:52.562Z,2310
2018-09-25T10:30:02.537Z,2480
2018-09-25T10:31:12.501Z,2585
2018-09-25T10:32:22.451Z,685
2018-09-25T10:33:32.435Z,570
2018-09-25T10:34:42.465Z,605
2018-09-25T10:35:52.180Z,695
2018-09-25T10:37:02.122Z,630
2018-09-25T10:38:11.581Z,835
2018-09-25T10:39:21.275Z,735
2018-09-25T10:40:31.235Z,720
2018-09-25T10:41:40.960Z,690
2018-09-25T10:42:50.680Z,2575
2018-09-25T10:44:00.629Z,685
2018-09-25T10:45:10.584Z,605
2018-09-25T10:46:20.273Z,580
2018-09-25T10:47:29.994Z,690
2018-09-25T10:48:39.704Z,760
2018-09-25T10:49:49.523Z,2665
2018-09-25T10:50:59.503Z,2670
2018-09-25T10:52:09.215Z,2625
2018-09-25T10:53:18.902Z,595
2018-09-25T10:54:28.857Z,580
2018-09-25T10:55:39.145Z,605
2018-09-25T10:56:49.130Z,2565
2018-09-25T10:57:59.089Z,520
2018-09-25T10:59:08.785Z,465
2018-09-25T11:00:18.908Z,460
2018-09-25T11:01:28.875Z,2475
2018-09-25T11:02:38.895Z,2655
2018-09-25T11:03:48.865Z,2760
2018-09-25T11:04:58.570Z,2710
2018-09-25T11:06:08.276Z,2695
2018-09-25T11:07:17.981Z,2725
2018-09-25T11:08:27.942Z,2675
2018-09-25T11:09:37.389Z,2775
2018-09-25T11:10:47.345Z,2780
2018-09-25T11:11:57.364Z,2775
2018-09-25T11:13:07.075Z,2830
2018-09-25T11:14:16.758Z,2850
2018-09-25T11:15:26.455Z,2945
2018-09-25T11:16:36.395Z,2955
2018-09-25T11:17:46.820Z,2900
2018-09-25T11:18:56.560Z,2825
2018-09-25T11:20:06.527Z,2685
2018-09-25T11:21:16.487Z,2695
2018-09-25T11:22:26.454Z,2735
2018-09-25T11:23:36.425Z,2770
2018-09-25T11:24:45.884Z,2720
2018-09-25T11:25:55.600Z,2685
2018-09-25T11:27:05.774Z,2450
2018-09-25T11:28:15.746Z,2715
2018-09-25T11:29:25.700Z,2755
2018-09-25T11:30:35.719Z,2775
2018-09-25T11:31:45.680Z,2895
2018-09-25T11:32:55.392Z,2855
2018-09-25T11:34:04.831Z,2865
2018-09-25T11:35:14.722Z,2925
2018-09-25T11:36:24.691Z,3065
2018-09-25T11:37:34.650Z,905
2018-09-25T11:38:44.607Z,3160
2018-09-25T11:39:54.806Z,3170
2018-09-25T11:41:05.341Z,3045
2018-09-25T11:42:15.237Z,710
2018-09-25T11:43:25.215Z,550
2018-09-25T11:44:35.176Z,560
2018-09-25T11:45:45.130Z,550
2018-09-25T11:46:55.923Z,2940
2018-09-25T11:48:06.020Z,2415
2018-09-25T11:49:16.021Z,2665
2018-09-25T11:50:25.980Z,2745
2018-09-25T11:51:35.939Z,1500
2018-09-25T11:52:45.993Z,665
2018-09-25T11:53:56.039Z,2985
2018-09-25T11:55:06.002Z,2990
2018-09-25T11:56:15.769Z,2930
2018-09-25T11:57:25.743Z,2855
2018-09-25T11:58:35.589Z,3025
2018-09-25T11:59:45.632Z,3100
2018-09-25T12:00:55.595Z,3020
2018-09-25T12:02:05.457Z,785
2018-09-25T12:03:14.928Z,3105
2018-09-25T12:04:24.921Z,3025
2018-09-25T12:05:34.886Z,3130
2018-09-25T12:06:44.851Z,3205
2018-09-25T12:07:54.827Z,2930
2018-09-25T12:09:04.554Z,3330
2018-09-25T12:10:14.012Z,3245
2018-09-25T12:11:23.969Z,2600
2018-09-25T12:12:33.437Z,3260
2018-09-25T12:13:43.377Z,3245
2018-09-25T12:14:53.136Z,3125
2018-09-25T12:16:02.624Z,3095
2018-09-25T12:17:12.337Z,1420
2018-09-25T12:18:22.306Z,2640
2018-09-25T12:19:32.280Z,2255
2018-09-25T12:20:42.296Z,3040
2018-09-25T12:21:52.261Z,3005
2018-09-25T12:23:01.969Z,2990
2018-09-25T12:24:11.681Z,3040
2018-09-25T12:25:21.663Z,3095
2018-09-25T12:26:31.653Z,3055
2018-09-25T12:27:41.621Z,3000
2018-09-25T12:28:51.600Z,3035
2018-09-25T12:30:01.573Z,3045
2018-09-25T12:31:11.533Z,2995
2018-09-25T12:32:21.506Z,3085
2018-09-25T12:33:31.202Z,3080
2018-09-25T12:34:40.933Z,3035
2018-09-25T12:35:50.903Z,700
2018-09-25T12:37:00.607Z,1900
2018-09-25T12:38:10.629Z,905
2018-09-25T12:39:20.590Z,530
2018-09-25T12:40:30.318Z,2790
2018-09-25T12:41:40.286Z,560
2018-09-25T12:42:50.248Z,500
2018-09-25T12:44:00.222Z,470
2018-09-25T12:45:10.207Z,465
2018-09-25T12:46:20.173Z,475
2018-09-25T12:47:29.881Z,790
2018-09-25T12:48:39.874Z,3070
2018-09-25T12:49:49.876Z,3025
2018-09-25T12:50:59.576Z,2405
2018-09-25T12:52:09.298Z,3145
2018-09-25T12:53:19.012Z,3120
2018-09-25T12:54:29.014Z,3175
2018-09-25T12:55:38.984Z,3370
2018-09-25T12:56:48.683Z,3380
2018-09-25T12:57:58.637Z,3210
2018-09-25T12:59:08.340Z,2605
2018-09-25T13:00:18.036Z,3010
2018-09-25T13:01:28.050Z,690
2018-09-25T13:02:37.735Z,1720
2018-09-25T13:03:47.514Z,3155
2018-09-25T13:04:56.955Z,3150
2018-09-25T13:06:06.516Z,3135
2018-09-25T13:07:16.494Z,3070
2018-09-25T13:08:26.223Z,3005
2018-09-25T13:09:36.089Z,865
2018-09-25T13:10:46.130Z,540
2018-09-25T13:11:55.583Z,520
2018-09-25T13:13:05.287Z,1660
2018-09-25T13:14:15.264Z,600
2018-09-25T13:15:25.225Z,490
2018-09-25T13:16:35.211Z,475
2018-09-25T13:17:45.166Z,470
2018-09-25T13:18:54.886Z,770
2018-09-25T13:20:04.833Z,545
2018-09-25T13:21:14.792Z,505
2018-09-25T13:22:24.239Z,430
2018-09-25T13:23:33.944Z,425
2018-09-25T13:24:43.903Z,435
2018-09-25T13:25:53.608Z,655
2018-09-25T13:27:03.298Z,480
2018-09-25T13:28:13.274Z,485
2018-09-25T13:29:22.968Z,460
2018-09-25T13:30:32.941Z,490
2018-09-25T13:31:42.897Z,580
2018-09-25T13:32:52.623Z,3030
2018-09-25T13:34:02.581Z,2860
2018-09-25T13:35:12.277Z,535
2018-09-25T13:36:22.232Z,525
2018-09-25T13:37:32.198Z,1225
2018-09-25T13:38:42.183Z,510
2018-09-25T13:39:51.634Z,515
2018-09-25T13:41:01.058Z,550
2018-09-25T13:42:10.784Z,2680
2018-09-25T13:43:20.746Z,780
2018-09-25T13:44:30.712Z,1620
2018-09-25T13:45:40.687Z,2795
2018-09-25T13:46:50.658Z,2910
2018-09-25T13:48:00.619Z,2805
2018-09-25T13:49:10.586Z,2790
2018-09-25T13:50:20.289Z,2960
2018-09-25T13:51:30.245Z,3010
2018-09-25T13:52:40.193Z,2720
2018-09-25T13:53:50.152Z,2995
2018-09-25T13:55:00.108Z,1370
2018-09-25T13:56:10.580Z,675
2018-09-25T13:57:20.321Z,845
2018-09-25T13:58:30.310Z,2930
2018-09-25T13:59:40.279Z,2970
2018-09-25T14:00:50.259Z,2835
2018-09-25T14:01:59.959Z,2870
2018-09-25T14:03:09.654Z,2935
2018-09-25T14:04:19.640Z,2820
2018-09-25T14:05:29.612Z,2730
2018-09-25T14:06:39.566Z,2735
2018-09-25T14:07:49.516Z,2690
2018-09-25T14:08:59.476Z,2695
2018-09-25T14:10:09.442Z,2755
2018-09-25T14:11:19.436Z,2735
2018-09-25T14:12:28.894Z,2810
2018-09-25T14:13:38.336Z,2820
2018-09-25T14:14:48.312Z,2685
2018-09-25T14:15:58.276Z,500
2018-09-25T14:17:07.991Z,625
2018-09-25T14:18:17.942Z,465
2018-09-25T14:19:27.634Z,450
2018-09-25T14:20:37.348Z,415
2018-09-25T14:21:47.311Z,395
2018-09-25T14:22:57.268Z,380
2018-09-25T14:24:06.979Z,375
2018-09-25T14:25:16.938Z,380
2018-09-25T14:26:26.377Z,375
2018-09-25T14:27:36.326Z,415
2018-09-25T14:28:46.346Z,505
2018-09-25T14:29:56.055Z,2540
2018-09-25T14:31:05.781Z,1135
2018-09-25T14:32:15.751Z,445
2018-09-25T14:33:25.717Z,2255
2018-09-25T14:34:35.746Z,495
2018-09-25T14:35:45.716Z,480
2018-09-25T14:36:55.670Z,1095
2018-09-25T14:38:05.629Z,2495
2018-09-25T14:39:15.593Z,2445
2018-09-25T14:40:25.040Z,2390
2018-09-25T14:41:35.000Z,2380
2018-09-25T14:42:44.964Z,2375
2018-09-25T14:43:54.665Z,2350
2018-09-25T14:45:04.362Z,2340
2018-09-25T14:46:14.332Z,2285
2018-09-25T14:47:24.292Z,2300
2018-09-25T14:48:34.145Z,2320
2018-09-25T14:49:44.116Z,2235
2018-09-25T14:50:54.068Z,2130
2018-09-25T14:52:04.048Z,2140
2018-09-25T14:53:14.038Z,2155
2018-09-25T14:54:23.837Z,2160
2018-09-25T14:55:33.813Z,2090
2018-09-25T14:56:43.258Z,2160
2018-09-25T14:57:53.221Z,2205
2018-09-25T14:59:02.938Z,2135
2018-09-25T15:00:12.938Z,2085
2018-09-25T15:01:22.904Z,2120
2018-09-25T15:02:32.869Z,2075
2018-09-25T15:03:42.837Z,1990
2018-09-25T15:04:52.539Z,2010
2018-09-25T15:06:02.518Z,2060
2018-09-25T15:07:12.543Z,1980
2018-09-25T15:08:22.283Z,1860
2018-09-25T15:09:32.277Z,1870
2018-09-25T15:10:42.164Z,1985
2018-09-25T15:11:51.662Z,1935
2018-09-25T15:13:01.638Z,1845
2018-09-25T15:14:11.605Z,1770
2018-09-25T15:15:21.305Z,1775
2018-09-25T15:16:31.264Z,1770
2018-09-25T15:17:41.229Z,1805
2018-09-25T15:18:51.198Z,1745
2018-09-25T15:20:01.158Z,1760
2018-09-25T15:21:11.918Z,1685
2018-09-25T15:22:24.444Z,1610
2018-09-25T15:23:34.393Z,1665
2018-09-25T15:24:44.355Z,1685
2018-09-25T15:25:54.312Z,1585
2018-09-25T15:27:04.281Z,1640
2018-09-25T15:28:13.995Z,1615
2018-09-25T15:29:23.695Z,1610
2018-09-25T15:30:33.136Z,1590
2018-09-25T15:31:43.088Z,1595
2018-09-25T15:32:53.310Z,1565
2018-09-25T15:34:03.091Z,1525
2018-09-25T15:35:12.778Z,1505
2018-09-25T15:36:22.777Z,1470
2018-09-25T15:37:32.730Z,1440
2018-09-25T15:38:42.677Z,1425
2018-09-25T15:39:52.650Z,1395
2018-09-25T15:41:02.835Z,640
2018-09-25T15:42:12.872Z,1320
2018-09-25T15:43:22.873Z,1275
2018-09-25T15:44:32.866Z,1260
2018-09-25T15:45:42.835Z,675
2018-09-25T15:46:52.785Z,595
2018-09-25T15:48:03.095Z,1090
2018-09-25T15:49:13.258Z,1205
2018-09-25T15:50:23.285Z,1195
2018-09-25T15:51:32.985Z,1125
2018-09-25T15:52:42.671Z,1120
2018-09-25T15:53:52.618Z,1150
2018-09-25T15:55:02.568Z,1110
2018-09-25T15:56:12.542Z,1155
2018-09-25T15:57:22.239Z,1110
2018-09-25T15:58:32.199Z,995
2018-09-25T15:59:41.900Z,1015
2018-09-25T16:00:51.595Z,990
2018-09-25T16:02:01.605Z,970
2018-09-25T16:03:11.292Z,900
2018-09-25T16:04:21.011Z,880
2018-09-25T16:05:30.719Z,930
2018-09-25T16:06:40.703Z,900
2018-09-25T16:07:50.650Z,890
2018-09-25T16:09:00.348Z,805
2018-09-25T16:10:10.308Z,755
2018-09-25T16:11:20.259Z,770
2018-09-25T16:12:30.217Z,775